Darlington, Rhode Island
Current Conditions -  °F | °C
As of 8:55 AM on Friday 24 Oct 2014 (Local Time) from KSFZ Reporting Station
Overcast Overcast  
Wind Chill: 45°   Ceiling: 2000
Heat Index: 48°   Visibility: 10mi
Dew Point: 41°   Wind: 8mph
Humidity: 76%   Direction: 300°WNW
Pressure: 29.71"   Gusts: NA
Location:  41.8783°N, 71.3527°W
Report Text: KSFZ 241255Z 30007KT 10SM FEW009 OVC020 09/05 A2971 RMK AO1
Loading
Personal Weather Stations






























Interactive Weather Map
Tropical Storm Tracking
New forecast layout! Learn more

10-Day Weather Forecast

Advertisements
Track Severe Weather on mobile